createdAt,value
2022-09-06T00:01:02.814Z,3.45
2022-09-06T00:04:06.623Z,4.28
2022-09-06T00:07:09.908Z,4.10
2022-09-06T00:10:13.685Z,3.95
2022-09-06T00:13:18.284Z,3.63
2022-09-06T00:16:25.398Z,3.55
2022-09-06T00:19:31.876Z,4.47
2022-09-06T00:22:36.373Z,3.70
2022-09-06T00:25:39.551Z,3.78
2022-09-06T00:28:44.371Z,3.95
2022-09-06T00:31:47.583Z,4.28
2022-09-06T00:34:50.780Z,3.80
2022-09-06T00:37:54.379Z,3.35
2022-09-06T00:40:58.164Z,3.92
2022-09-06T00:44:02.686Z,3.58
2022-09-06T00:47:06.626Z,4.53
2022-09-06T00:50:11.046Z,4.35
2022-09-06T00:53:14.310Z,4.22
2022-09-06T00:56:17.525Z,3.60
2022-09-06T00:59:22.083Z,3.38
2022-09-06T01:02:25.543Z,3.55
2022-09-06T01:05:33.252Z,4.10
2022-09-06T01:08:44.160Z,3.15
2022-09-06T01:11:55.532Z,3.75
2022-09-06T01:15:06.998Z,3.88
2022-09-06T01:18:18.687Z,3.90
2022-09-06T01:21:27.930Z,3.90
2022-09-06T01:24:44.844Z,3.75
2022-09-06T01:27:56.856Z,3.33
2022-09-06T01:31:05.481Z,3.83
2022-09-06T01:34:18.244Z,4.00
2022-09-06T01:37:22.151Z,3.83
2022-09-06T01:40:25.354Z,3.85
2022-09-06T01:43:33.122Z,3.97
2022-09-06T01:46:40.607Z,3.55
2022-09-06T01:49:49.608Z,3.60
2022-09-06T01:52:59.262Z,3.83
2022-09-06T01:56:05.871Z,3.40
2022-09-06T01:59:21.525Z,4.03
2022-09-06T02:02:27.076Z,3.72
2022-09-06T02:05:32.976Z,3.83
2022-09-06T02:08:37.456Z,3.63
2022-09-06T02:11:42.303Z,3.83
2022-09-06T02:14:47.731Z,4.10
2022-09-06T02:17:55.239Z,3.67
2022-09-06T02:20:59.479Z,3.33
2022-09-06T02:24:05.146Z,3.83
2022-09-06T02:27:08.723Z,3.50
2022-09-06T02:30:14.076Z,3.33
2022-09-06T02:33:20.026Z,3.42
2022-09-06T02:36:23.299Z,4.20
2022-09-06T02:39:26.553Z,3.77
2022-09-06T02:42:29.767Z,4.50
2022-09-06T02:45:34.369Z,3.50
2022-09-06T02:48:38.062Z,4.60
2022-09-06T02:51:41.571Z,3.53
2022-09-06T02:54:44.931Z,4.50
2022-09-06T02:57:48.887Z,3.40
2022-09-06T03:00:53.905Z,4.27
2022-09-06T03:03:57.338Z,3.87
2022-09-06T03:07:00.630Z,4.27
2022-09-06T03:10:03.882Z,3.70
2022-09-06T03:13:07.180Z,3.17
2022-09-06T03:16:11.753Z,4.78
2022-09-06T03:19:15.004Z,3.90
2022-09-06T03:22:18.376Z,4.23
2022-09-06T03:25:21.718Z,3.63
2022-09-06T03:28:25.272Z,2.93
2022-09-06T03:31:29.821Z,3.67
2022-09-06T03:34:33.026Z,3.15
2022-09-06T03:37:36.283Z,3.70
2022-09-06T03:40:39.480Z,3.97
2022-09-06T03:43:42.670Z,3.43
2022-09-06T03:46:47.189Z,3.90
2022-09-06T03:49:50.918Z,3.80
2022-09-06T03:52:54.102Z,3.17
2022-09-06T03:55:58.619Z,3.83
2022-09-06T03:59:01.854Z,3.43
2022-09-06T04:02:07.429Z,3.43
2022-09-06T04:05:13.257Z,3.53
2022-09-06T04:08:16.468Z,3.85
2022-09-06T04:11:19.683Z,3.07
2022-09-06T04:14:22.887Z,3.47
2022-09-06T04:17:27.864Z,3.63
2022-09-06T04:20:31.084Z,3.40
2022-09-06T04:23:37.762Z,3.77
2022-09-06T04:26:43.114Z,3.80
2022-09-06T04:29:46.308Z,4.23
2022-09-06T04:32:50.826Z,3.80
2022-09-06T04:35:54.705Z,3.40
2022-09-06T04:38:57.921Z,3.63
2022-09-06T04:42:01.126Z,3.23
2022-09-06T04:45:04.438Z,3.73
2022-09-06T04:48:09.428Z,3.90
2022-09-06T04:51:12.630Z,4.23
2022-09-06T04:54:15.890Z,4.27
2022-09-06T04:57:19.119Z,4.10
2022-09-06T05:00:22.358Z,3.57
2022-09-06T05:03:27.103Z,4.10
2022-09-06T05:06:30.284Z,4.30
2022-09-06T05:09:33.525Z,3.17
2022-09-06T05:12:39.779Z,4.00
2022-09-06T05:15:45.299Z,3.47
2022-09-06T05:18:49.883Z,3.73
2022-09-06T05:21:53.076Z,3.77
2022-09-06T05:24:56.348Z,3.80
2022-09-06T05:27:59.603Z,4.30
2022-09-06T05:31:09.473Z,4.33
2022-09-06T05:34:15.022Z,4.40
2022-09-06T05:37:18.223Z,3.90
2022-09-06T05:40:21.664Z,3.73
2022-09-06T05:43:24.863Z,3.93
2022-09-06T05:46:28.044Z,3.23
2022-09-06T05:49:33.092Z,3.90
2022-09-06T05:52:36.452Z,3.50
2022-09-06T05:55:42.879Z,3.67
2022-09-06T05:58:46.400Z,4.07
2022-09-06T06:01:50.458Z,3.17
2022-09-06T06:04:55.757Z,2.90
2022-09-06T06:07:59.578Z,3.27
2022-09-06T06:11:03.223Z,3.40
2022-09-06T06:14:06.699Z,3.97
2022-09-06T06:17:10.032Z,2.97
2022-09-06T06:20:14.870Z,3.97
2022-09-06T06:23:18.068Z,3.85
2022-09-06T06:26:21.459Z,3.50
2022-09-06T06:29:25.292Z,2.88
2022-09-06T06:32:28.623Z,3.42
2022-09-06T06:35:36.071Z,2.83
2022-09-06T06:38:42.606Z,2.90
2022-09-06T06:41:45.792Z,2.75
2022-09-06T06:44:49.031Z,3.13
2022-09-06T06:47:52.374Z,3.65
2022-09-06T06:50:56.930Z,3.60
2022-09-06T06:54:00.491Z,3.47
2022-09-06T06:57:04.295Z,3.42
2022-09-06T07:00:08.074Z,2.97
2022-09-06T07:03:11.667Z,3.28
2022-09-06T07:06:16.596Z,2.97
2022-09-06T07:09:20.626Z,2.65
2022-09-06T07:12:23.835Z,2.42
2022-09-06T07:15:27.175Z,2.63
2022-09-06T07:18:30.363Z,2.33
2022-09-06T07:24:43.051Z,2.42
2022-09-06T07:27:47.969Z,2.05
2022-09-06T07:30:55.360Z,2.15
2022-09-06T07:33:58.787Z,2.30
2022-09-06T07:37:03.348Z,2.72
2022-09-06T07:40:06.907Z,2.15
2022-09-06T07:43:10.168Z,1.77
2022-09-06T07:46:14.505Z,1.90
2022-09-06T07:49:17.766Z,2.33
2022-09-06T07:55:45.971Z,1.70
2022-09-06T07:58:49.452Z,1.55
2022-09-06T08:01:53.181Z,1.80
2022-09-06T08:04:57.356Z,2.15
2022-09-06T08:11:26.231Z,1.60
2022-09-06T08:14:29.427Z,2.00
2022-09-06T08:17:35.872Z,1.55
2022-09-06T08:20:39.209Z,1.83
2022-09-06T08:23:47.016Z,1.42
2022-09-06T08:26:50.232Z,1.40
2022-09-06T08:29:53.428Z,1.60
2022-09-06T08:32:57.724Z,1.48
2022-09-06T08:36:00.944Z,1.75
2022-09-06T08:39:06.458Z,1.58
2022-09-06T08:42:10.318Z,1.17
2022-09-06T08:45:15.956Z,1.00
2022-09-06T08:48:19.211Z,0.95
2022-09-06T08:51:43.250Z,1.25
2022-09-06T08:54:50.458Z,1.02
2022-09-06T08:58:03.028Z,0.90
2022-09-06T09:01:08.899Z,0.90
2022-09-06T09:04:15.878Z,1.05
2022-09-06T09:07:40.095Z,1.13
2022-09-06T09:10:46.068Z,1.60
2022-09-06T09:13:55.494Z,0.70
2022-09-06T09:17:03.535Z,1.08
2022-09-06T09:20:08.343Z,0.60
2022-09-06T09:23:11.547Z,0.93
2022-09-06T09:26:17.180Z,0.95
2022-09-06T09:29:25.315Z,0.77
2022-09-06T09:32:31.930Z,0.90
2022-09-06T09:35:38.468Z,0.70
2022-09-06T09:38:43.180Z,0.80
2022-09-06T09:41:52.210Z,1.15
2022-09-06T09:44:55.514Z,1.10
2022-09-06T09:47:59.531Z,1.27
2022-09-06T09:51:23.943Z,0.88
2022-09-06T09:54:32.166Z,0.85
2022-09-06T09:57:46.686Z,0.47
2022-09-06T10:00:50.059Z,0.95
2022-09-06T10:07:18.362Z,0.73
2022-09-06T10:10:23.471Z,0.90
2022-09-06T10:13:30.132Z,0.90
2022-09-06T10:16:43.557Z,0.88
2022-09-06T10:19:47.378Z,0.50
2022-09-06T10:22:53.460Z,1.30
2022-09-06T10:26:02.244Z,1.17
2022-09-06T10:29:09.596Z,0.95
2022-09-06T10:32:18.678Z,0.90
2022-09-06T10:35:23.437Z,0.70
2022-09-06T10:38:32.426Z,0.98
2022-09-06T10:41:48.694Z,1.08
2022-09-06T10:45:18.069Z,0.73
2022-09-06T10:48:22.547Z,0.50
2022-09-06T10:51:30.859Z,0.90
2022-09-06T10:54:35.069Z,0.80
2022-09-06T11:01:07.532Z,0.95
2022-09-06T11:04:12.787Z,1.10
2022-09-06T11:07:19.666Z,0.93
2022-09-06T11:10:25.392Z,0.90
2022-09-06T11:13:29.481Z,1.17
2022-09-06T11:16:39.880Z,1.00
2022-09-06T11:19:46.572Z,1.05
2022-09-06T11:22:53.954Z,1.60
2022-09-06T11:26:07.012Z,2.00
2022-09-06T11:29:11.897Z,1.30
2022-09-06T11:32:33.864Z,1.17
2022-09-06T11:35:37.886Z,1.35
2022-09-06T11:38:41.200Z,1.35
2022-09-06T11:41:44.662Z,1.15
2022-09-06T11:44:55.671Z,1.40
2022-09-06T11:48:20.542Z,1.33
2022-09-06T11:51:35.031Z,1.42
2022-09-06T11:54:44.353Z,1.73
2022-09-06T11:57:49.118Z,1.63
2022-09-06T12:01:07.277Z,1.55
2022-09-06T12:04:12.278Z,1.40
2022-09-06T12:07:15.621Z,1.67
2022-09-06T12:10:37.738Z,1.55
2022-09-06T12:13:49.626Z,1.38
2022-09-06T12:17:11.796Z,1.20
2022-09-06T12:20:36.483Z,1.42
2022-09-06T12:23:46.859Z,1.40
2022-09-06T12:26:55.541Z,1.77
2022-09-06T12:29:59.864Z,1.52
2022-09-06T12:33:04.254Z,1.25
2022-09-06T12:36:29.597Z,1.02
2022-09-06T12:39:34.333Z,1.50
2022-09-06T12:42:39.749Z,1.15
2022-09-06T12:45:44.989Z,1.73
2022-09-06T12:49:01.166Z,1.58
2022-09-06T12:52:08.527Z,1.33
2022-09-06T12:55:16.792Z,1.65
2022-09-06T12:58:29.475Z,1.45
2022-09-06T13:01:35.803Z,1.40
2022-09-06T13:04:41.931Z,1.67
2022-09-06T13:07:46.404Z,1.85
2022-09-06T13:10:51.313Z,1.52
2022-09-06T13:13:56.290Z,1.48
2022-09-06T13:16:59.991Z,1.90
2022-09-06T13:20:12.030Z,1.67
2022-09-06T13:23:22.127Z,2.58
2022-09-06T13:26:37.080Z,1.83
2022-09-06T13:29:40.276Z,2.38
2022-09-06T13:32:48.525Z,2.15
2022-09-06T13:35:52.889Z,2.20
2022-09-06T13:38:56.748Z,1.90
2022-09-06T13:42:05.695Z,1.63
2022-09-06T13:45:22.101Z,1.35
2022-09-06T13:48:29.191Z,2.03
2022-09-06T13:51:33.942Z,1.75
2022-09-06T13:54:37.627Z,1.85
2022-09-06T13:57:42.218Z,1.90
2022-09-06T14:00:46.843Z,1.75
2022-09-06T14:03:51.398Z,1.40
2022-09-06T14:06:54.994Z,1.38
2022-09-06T14:09:58.230Z,1.30
2022-09-06T14:13:02.757Z,1.58
2022-09-06T14:16:06.152Z,1.80
2022-09-06T14:19:09.689Z,1.55
2022-09-06T14:22:12.959Z,1.33
2022-09-06T14:25:16.260Z,1.70
2022-09-06T14:28:21.440Z,1.42
2022-09-06T14:31:26.360Z,2.22
2022-09-06T14:34:29.649Z,1.70
2022-09-06T14:37:33.056Z,1.67
2022-09-06T14:40:36.732Z,1.83
2022-09-06T14:43:41.332Z,2.33
2022-09-06T14:46:44.783Z,1.98
2022-09-06T14:49:48.449Z,1.83
2022-09-06T14:52:51.952Z,1.50
2022-09-06T14:55:55.354Z,1.92
2022-09-06T14:59:00.233Z,1.95
2022-09-06T15:02:03.520Z,1.60
2022-09-06T15:05:07.196Z,1.73
2022-09-06T15:08:10.873Z,1.63
2022-09-06T15:11:14.078Z,2.15
2022-09-06T15:14:20.074Z,1.55
2022-09-06T15:17:23.515Z,1.80
2022-09-06T15:20:26.751Z,2.13
2022-09-06T15:23:30.179Z,1.95
2022-09-06T15:26:33.495Z,1.92
2022-09-06T15:29:38.064Z,1.73
2022-09-06T15:32:41.271Z,1.45
2022-09-06T15:35:44.979Z,2.00
2022-09-06T15:38:49.263Z,1.88
2022-09-06T15:41:52.914Z,1.25
2022-09-06T15:44:57.480Z,1.58
2022-09-06T15:48:01.446Z,1.30
2022-09-06T15:51:04.774Z,1.38
2022-09-06T15:54:08.180Z,1.50
2022-09-06T15:57:11.387Z,1.50
2022-09-06T16:00:17.843Z,2.00
2022-09-06T16:03:21.047Z,1.95
2022-09-06T16:06:25.879Z,1.70
2022-09-06T16:09:30.212Z,2.08
2022-09-06T16:12:33.392Z,2.13
2022-09-06T16:15:37.914Z,1.75
2022-09-06T16:18:42.434Z,1.73
2022-09-06T16:21:45.813Z,1.80
2022-09-06T16:24:49.061Z,1.50
2022-09-06T16:27:52.275Z,1.23
2022-09-06T16:30:57.013Z,2.08
2022-09-06T16:34:00.242Z,1.90
2022-09-06T16:37:07.759Z,2.25
2022-09-06T16:40:11.745Z,2.42
2022-09-06T16:43:15.207Z,1.80
2022-09-06T16:46:20.192Z,1.55
2022-09-06T16:49:23.516Z,2.28
2022-09-06T16:52:26.698Z,2.22
2022-09-06T16:55:29.993Z,2.30
2022-09-06T16:58:33.209Z,2.63
2022-09-06T17:01:38.802Z,2.67
2022-09-06T17:04:42.122Z,2.13
2022-09-06T17:07:45.316Z,2.20
2022-09-06T17:10:48.841Z,2.17
2022-09-06T17:13:53.638Z,2.38
2022-09-06T17:17:07.566Z,2.58
2022-09-06T17:20:11.234Z,2.25
2022-09-06T17:23:19.116Z,2.40
2022-09-06T17:26:24.088Z,2.50
2022-09-06T17:29:27.810Z,2.10
2022-09-06T17:32:32.769Z,2.10
2022-09-06T17:35:36.047Z,2.10
2022-09-06T17:38:39.524Z,2.20
2022-09-06T17:41:45.628Z,2.25
2022-09-06T17:44:48.814Z,2.20
2022-09-06T17:47:53.325Z,2.05
2022-09-06T17:50:56.832Z,2.75
2022-09-06T17:54:00.018Z,2.15
2022-09-06T17:57:03.200Z,2.53
2022-09-06T18:00:06.777Z,2.30
2022-09-06T18:03:11.312Z,2.30
2022-09-06T18:06:15.589Z,2.88
2022-09-06T18:09:18.794Z,2.20
2022-09-06T18:12:22.502Z,2.80
2022-09-06T18:15:25.711Z,2.28
2022-09-06T18:18:30.315Z,2.50
2022-09-06T18:21:34.826Z,2.03
2022-09-06T18:24:38.039Z,2.72
2022-09-06T18:27:41.266Z,3.08
2022-09-06T18:30:44.978Z,2.45
2022-09-06T18:33:49.565Z,2.85
2022-09-06T18:36:52.766Z,2.97
2022-09-06T18:39:55.993Z,2.47
2022-09-06T18:42:59.316Z,3.22
2022-09-06T18:46:03.554Z,3.05
2022-09-06T18:49:08.145Z,5.05
2022-09-06T18:52:11.352Z,4.53
2022-09-06T18:55:14.542Z,5.15
2022-09-06T18:58:17.740Z,5.30
2022-09-06T19:01:21.870Z,5.70
2022-09-06T19:04:27.025Z,4.82
2022-09-06T19:07:30.234Z,4.50
2022-09-06T19:10:33.442Z,4.50
2022-09-06T19:13:37.868Z,3.72
2022-09-06T19:16:43.864Z,4.43
2022-09-06T19:19:48.514Z,4.22
2022-09-06T19:22:51.751Z,3.67
2022-09-06T19:25:58.698Z,4.80
2022-09-06T19:29:03.058Z,3.85
2022-09-06T19:32:06.407Z,4.15
2022-09-06T19:35:11.424Z,3.95
2022-09-06T19:38:14.620Z,4.15
2022-09-06T19:41:19.244Z,3.13
2022-09-06T19:44:22.567Z,4.10
2022-09-06T19:47:26.823Z,4.13
2022-09-06T19:50:33.761Z,3.38
2022-09-06T19:53:38.013Z,3.50
2022-09-06T19:56:41.270Z,3.22
2022-09-06T19:59:44.447Z,3.17
2022-09-06T20:02:47.957Z,3.33
2022-09-06T20:05:57.550Z,4.03
2022-09-06T20:09:01.620Z,3.83
2022-09-06T20:12:05.421Z,4.13
2022-09-06T20:15:09.022Z,3.40
2022-09-06T20:18:12.198Z,3.83
2022-09-06T20:21:18.319Z,4.07
2022-09-06T20:24:21.531Z,4.20
2022-09-06T20:27:24.764Z,3.50
2022-09-06T20:30:30.084Z,3.20
2022-09-06T20:33:34.357Z,3.67
2022-09-06T20:36:38.906Z,3.25
2022-09-06T20:39:42.137Z,3.72
2022-09-06T20:42:46.034Z,3.67
2022-09-06T20:45:50.447Z,3.38
2022-09-06T20:48:54.006Z,3.55
2022-09-06T20:51:58.583Z,3.45
2022-09-06T20:55:01.854Z,3.25
2022-09-06T20:58:05.101Z,3.55
2022-09-06T21:01:09.121Z,3.42
2022-09-06T21:04:13.976Z,3.08
2022-09-06T21:07:18.494Z,4.05
2022-09-06T21:10:21.755Z,4.03
2022-09-06T21:13:25.286Z,3.47
2022-09-06T21:16:30.209Z,3.67
2022-09-06T21:19:36.194Z,3.22
2022-09-06T21:22:41.428Z,2.97
2022-09-06T21:25:44.616Z,3.42
2022-09-06T21:28:48.526Z,3.58
2022-09-06T21:31:52.062Z,2.97
2022-09-06T21:34:55.333Z,3.33
2022-09-06T21:37:59.857Z,2.83
2022-09-06T21:41:03.177Z,2.97
2022-09-06T21:44:07.376Z,3.30
2022-09-06T21:47:10.676Z,3.22
2022-09-06T21:50:14.306Z,3.10
2022-09-06T21:53:23.602Z,3.20
2022-09-06T21:56:27.591Z,3.50
2022-09-06T21:59:31.014Z,4.38
2022-09-06T22:02:34.308Z,3.92
2022-09-06T22:05:37.542Z,3.53
2022-09-06T22:08:43.695Z,3.65
2022-09-06T22:11:46.984Z,3.58
2022-09-06T22:14:50.415Z,3.50
2022-09-06T22:17:53.609Z,3.75
2022-09-06T22:21:01.101Z,4.05
2022-09-06T22:24:06.649Z,3.83
2022-09-06T22:27:09.857Z,3.90
2022-09-06T22:30:13.747Z,3.38
2022-09-06T22:33:17.062Z,3.47
2022-09-06T22:36:20.591Z,3.65
2022-09-06T22:39:25.188Z,3.38
2022-09-06T22:42:28.447Z,4.40
2022-09-06T22:45:33.568Z,3.65
2022-09-06T22:48:37.192Z,3.28
2022-09-06T22:51:40.420Z,3.17
2022-09-06T22:54:45.087Z,4.00
2022-09-06T22:57:48.279Z,3.60
2022-09-06T23:00:51.592Z,3.80
2022-09-06T23:03:54.871Z,3.47
2022-09-06T23:06:58.135Z,3.45
2022-09-06T23:10:02.698Z,3.63
2022-09-06T23:13:05.974Z,4.32
2022-09-06T23:16:10.141Z,3.33
2022-09-06T23:19:13.432Z,3.03
2022-09-06T23:22:16.651Z,3.80
2022-09-06T23:25:21.281Z,3.90
2022-09-06T23:28:24.560Z,3.58
2022-09-06T23:31:29.148Z,4.90
2022-09-06T23:34:32.379Z,3.75
2022-09-06T23:37:35.585Z,4.05
2022-09-06T23:40:40.107Z,3.40
2022-09-06T23:43:44.299Z,3.38
2022-09-06T23:46:47.634Z,4.35
2022-09-06T23:49:50.936Z,3.28
2022-09-06T23:52:54.236Z,4.45
2022-09-06T23:55:59.001Z,4.20
2022-09-06T23:59:02.358Z,3.70
